createdAt,value
2023-02-07T00:00:28.503Z,9.36
2023-02-07T00:02:54.931Z,8.90
2023-02-07T00:05:21.357Z,9.14
2023-02-07T00:07:47.882Z,9.35
2023-02-07T00:10:14.298Z,9.50
2023-02-07T00:12:40.639Z,9.65
2023-02-07T00:15:07.023Z,9.76
2023-02-07T00:17:33.416Z,9.50
2023-02-07T00:19:59.818Z,9.07
2023-02-07T00:22:26.272Z,8.53
2023-02-07T00:24:52.603Z,8.77
2023-02-07T00:27:19.022Z,9.52
2023-02-07T00:29:45.427Z,9.51
2023-02-07T00:32:11.769Z,8.43
2023-02-07T00:34:38.194Z,7.88
2023-02-07T00:37:04.581Z,7.65
2023-02-07T00:39:30.997Z,8.18
2023-02-07T00:41:57.366Z,7.86
2023-02-07T00:44:23.768Z,7.13
2023-02-07T00:46:50.108Z,6.90
2023-02-07T00:49:16.508Z,7.56
2023-02-07T00:51:42.963Z,10.13
2023-02-07T00:54:09.370Z,10.05
2023-02-07T00:56:35.759Z,9.83
2023-02-07T00:59:02.115Z,9.34
2023-02-07T01:01:28.580Z,9.66
2023-02-07T01:03:55.028Z,9.99
2023-02-07T01:06:21.449Z,10.13
2023-02-07T01:08:47.821Z,9.75
2023-02-07T01:11:14.227Z,10.46
2023-02-07T01:13:40.602Z,10.95
2023-02-07T01:16:07.012Z,10.95
2023-02-07T01:18:34.488Z,11.39
2023-02-07T01:21:00.800Z,11.30
2023-02-07T01:23:27.216Z,11.15
2023-02-07T01:25:53.622Z,11.38
2023-02-07T01:28:20.001Z,11.34
2023-02-07T01:30:46.506Z,10.73
2023-02-07T01:33:12.887Z,10.62
2023-02-07T01:35:39.812Z,10.64
2023-02-07T01:38:06.376Z,10.59
2023-02-07T01:40:32.816Z,10.85
2023-02-07T01:42:59.177Z,11.56
2023-02-07T01:45:25.512Z,10.97
2023-02-07T01:47:52.016Z,10.85
2023-02-07T01:50:18.434Z,11.18
2023-02-07T01:52:44.834Z,12.10
2023-02-07T01:55:11.290Z,11.79
2023-02-07T01:57:37.722Z,11.95
2023-02-07T02:00:04.101Z,11.72
2023-02-07T02:02:30.569Z,11.11
2023-02-07T02:04:56.951Z,11.51
2023-02-07T02:07:23.331Z,11.42
2023-02-07T02:09:49.716Z,11.23
2023-02-07T02:12:16.101Z,11.57
2023-02-07T02:14:42.515Z,11.12
2023-02-07T02:17:08.854Z,10.57
2023-02-07T02:19:35.392Z,10.94
2023-02-07T02:22:01.853Z,11.08
2023-02-07T02:24:28.290Z,11.18
2023-02-07T02:26:54.726Z,10.80
2023-02-07T02:29:21.142Z,10.53
2023-02-07T02:31:47.555Z,10.41
2023-02-07T02:34:13.897Z,9.84
2023-02-07T02:36:40.465Z,12.25
2023-02-07T02:39:06.870Z,12.19
2023-02-07T02:41:33.211Z,9.97
2023-02-07T02:43:59.575Z,9.85
2023-02-07T02:46:26.040Z,10.45
2023-02-07T02:48:52.400Z,10.45
2023-02-07T02:51:18.830Z,10.54
2023-02-07T02:53:46.307Z,9.09
2023-02-07T02:56:12.711Z,9.14
2023-02-07T02:58:39.237Z,9.16
2023-02-07T03:01:05.682Z,9.08
2023-02-07T03:03:32.061Z,8.92
2023-02-07T03:05:58.406Z,9.68
2023-02-07T03:08:24.854Z,10.91
2023-02-07T03:10:51.267Z,11.21
2023-02-07T03:13:17.654Z,9.93
2023-02-07T03:15:44.056Z,8.47
2023-02-07T03:18:10.408Z,8.15
2023-02-07T03:20:36.841Z,8.72
2023-02-07T03:23:03.226Z,9.10
2023-02-07T03:25:29.548Z,9.63
2023-02-07T03:27:55.928Z,11.21
2023-02-07T03:30:22.312Z,12.56
2023-02-07T03:32:48.698Z,11.03
2023-02-07T03:35:15.122Z,9.75
2023-02-07T03:37:41.516Z,9.52
2023-02-07T03:40:07.893Z,7.53
2023-02-07T03:42:34.253Z,6.93
2023-02-07T03:45:00.616Z,6.55
2023-02-07T03:47:27.012Z,7.07
2023-02-07T03:49:53.352Z,7.07
2023-02-07T03:52:19.818Z,7.30
2023-02-07T03:54:46.251Z,7.07
2023-02-07T03:57:12.599Z,7.21
2023-02-07T03:59:38.980Z,7.23
2023-02-07T04:02:05.428Z,8.21
2023-02-07T04:04:31.833Z,8.44
2023-02-07T04:06:58.280Z,8.45
2023-02-07T04:09:24.643Z,8.89
2023-02-07T04:11:51.030Z,8.72
2023-02-07T04:14:17.379Z,9.07
2023-02-07T04:16:43.817Z,7.93
2023-02-07T04:19:10.198Z,6.70
2023-02-07T04:21:36.569Z,6.60
2023-02-07T04:24:02.913Z,5.96
2023-02-07T04:26:29.333Z,5.90
2023-02-07T04:28:55.663Z,6.28
2023-02-07T04:31:22.109Z,6.71
2023-02-07T04:33:48.456Z,7.29
2023-02-07T04:36:14.963Z,7.44
2023-02-07T04:38:41.318Z,7.77
2023-02-07T04:41:07.722Z,8.18
2023-02-07T04:43:34.353Z,8.00
2023-02-07T04:46:00.751Z,8.00
2023-02-07T04:48:27.199Z,7.95
2023-02-07T04:50:53.628Z,7.42
2023-02-07T04:53:19.963Z,7.18
2023-02-07T04:55:46.400Z,7.26
2023-02-07T04:58:12.862Z,7.84
2023-02-07T05:00:39.257Z,8.46
2023-02-07T05:03:05.638Z,9.16
2023-02-07T05:05:32.071Z,8.49
2023-02-07T05:07:58.429Z,7.84
2023-02-07T05:10:24.826Z,6.72
2023-02-07T05:12:51.222Z,6.77
2023-02-07T05:15:17.560Z,7.10
2023-02-07T05:17:44.636Z,6.40
2023-02-07T05:20:10.999Z,6.24
2023-02-07T05:22:37.549Z,6.23
2023-02-07T05:25:03.936Z,5.21
2023-02-07T05:27:31.904Z,5.07
2023-02-07T05:29:58.341Z,4.70
2023-02-07T05:32:24.894Z,4.78
2023-02-07T05:34:51.340Z,4.69
2023-02-07T05:37:17.790Z,4.74
2023-02-07T05:39:44.182Z,4.58
2023-02-07T05:42:10.543Z,5.85
2023-02-07T05:44:36.972Z,5.65
2023-02-07T05:47:03.388Z,4.99
2023-02-07T05:49:29.749Z,4.98
2023-02-07T05:51:56.157Z,4.98
2023-02-07T05:54:22.538Z,5.01
2023-02-07T05:56:48.910Z,5.08
2023-02-07T05:59:15.304Z,5.65
2023-02-07T06:01:41.704Z,7.18
2023-02-07T06:04:08.058Z,5.90
2023-02-07T06:06:34.493Z,5.45
2023-02-07T06:09:00.921Z,6.17
2023-02-07T06:11:27.317Z,5.89
2023-02-07T06:13:53.709Z,5.15
2023-02-07T06:16:20.285Z,5.08
2023-02-07T06:18:46.765Z,4.47
2023-02-07T06:21:13.231Z,4.05
2023-02-07T06:23:39.599Z,4.49
2023-02-07T06:26:07.071Z,4.59
2023-02-07T06:28:33.468Z,6.20
2023-02-07T06:31:00.038Z,6.94
2023-02-07T06:33:26.432Z,6.95
2023-02-07T06:35:52.793Z,6.97
2023-02-07T06:38:19.278Z,6.42
2023-02-07T06:40:45.681Z,5.20
2023-02-07T06:43:12.197Z,5.03
2023-02-07T06:45:38.843Z,5.21
2023-02-07T06:48:05.440Z,5.58
2023-02-07T06:50:31.757Z,5.74
2023-02-07T06:52:58.094Z,6.12
2023-02-07T06:58:22.101Z,5.42
2023-02-07T07:00:48.497Z,5.12
2023-02-07T07:03:15.007Z,4.91
2023-02-07T07:05:44.546Z,5.31
2023-02-07T07:08:11.032Z,6.84
2023-02-07T07:10:37.434Z,8.11
2023-02-07T07:13:03.783Z,7.89
2023-02-07T07:15:30.210Z,8.87
2023-02-07T07:17:57.912Z,9.11
2023-02-07T07:20:24.337Z,9.93
2023-02-07T07:22:50.696Z,9.16
2023-02-07T07:25:17.184Z,8.27
2023-02-07T07:27:43.533Z,7.63
2023-02-07T07:30:10.790Z,7.66
2023-02-07T07:32:37.399Z,6.70
2023-02-07T07:35:03.756Z,6.33
2023-02-07T07:37:30.256Z,7.23
2023-02-07T07:40:04.521Z,7.37
2023-02-07T07:42:31.086Z,6.81
2023-02-07T07:44:57.548Z,6.73
2023-02-07T07:47:23.972Z,6.39
2023-02-07T07:49:51.148Z,6.48
2023-02-07T07:52:18.359Z,6.96
2023-02-07T07:54:44.833Z,6.79
2023-02-07T07:57:11.248Z,6.87
2023-02-07T07:59:39.178Z,6.92
2023-02-07T08:02:05.644Z,7.14
2023-02-07T08:04:32.033Z,6.73
2023-02-07T08:06:58.449Z,7.70
2023-02-07T08:09:24.930Z,7.93
2023-02-07T08:11:51.315Z,7.15
2023-02-07T08:14:17.748Z,7.01
2023-02-07T08:16:44.238Z,7.25
2023-02-07T08:19:10.635Z,8.21
2023-02-07T08:21:37.082Z,7.94
2023-02-07T08:24:03.547Z,6.85
2023-02-07T08:26:30.047Z,10.21
2023-02-07T08:28:56.546Z,10.28
2023-02-07T08:31:23.252Z,8.25
2023-02-07T08:33:49.790Z,7.66
2023-02-07T08:36:16.188Z,5.96
2023-02-07T08:38:42.639Z,6.07
2023-02-07T08:41:09.328Z,6.40
2023-02-07T08:43:38.177Z,6.32
2023-02-07T08:46:05.100Z,6.20
2023-02-07T08:48:31.850Z,6.05
2023-02-07T08:51:01.026Z,6.17
2023-02-07T08:53:28.522Z,6.76
2023-02-07T08:55:55.086Z,7.23
2023-02-07T08:58:21.562Z,8.80
2023-02-07T09:03:31.537Z,10.18
2023-02-07T09:05:58.026Z,11.27
2023-02-07T09:08:24.474Z,11.47
2023-02-07T09:10:50.961Z,12.66
2023-02-07T09:13:17.427Z,12.70
2023-02-07T09:15:43.856Z,10.99
2023-02-07T09:18:10.352Z,10.06
2023-02-07T09:20:37.331Z,10.94
2023-02-07T09:23:04.002Z,11.08
2023-02-07T09:25:34.947Z,11.46
2023-02-07T09:28:01.427Z,11.85
2023-02-07T09:30:27.993Z,10.07
2023-02-07T09:32:54.449Z,9.29
2023-02-07T09:35:20.877Z,9.12
2023-02-07T09:37:50.019Z,9.55
2023-02-07T09:40:16.749Z,10.88
2023-02-07T09:42:43.261Z,11.51
2023-02-07T09:45:10.534Z,11.22
2023-02-07T09:47:37.683Z,11.17
2023-02-07T09:50:04.197Z,11.30
2023-02-07T09:52:30.575Z,13.68
2023-02-07T09:54:57.047Z,15.71
2023-02-07T09:57:23.454Z,15.63
2023-02-07T09:59:50.131Z,15.03
2023-02-07T10:02:16.632Z,16.38
2023-02-07T10:04:43.253Z,16.73
2023-02-07T10:07:09.697Z,16.22
2023-02-07T10:09:36.199Z,15.84
2023-02-07T10:12:09.249Z,16.49
2023-02-07T10:14:35.775Z,17.22
2023-02-07T10:17:02.314Z,15.88
2023-02-07T10:19:28.724Z,16.23
2023-02-07T10:21:55.154Z,16.39
2023-02-07T10:24:21.676Z,16.51
2023-02-07T10:26:48.139Z,17.57
2023-02-07T10:29:14.523Z,19.90
2023-02-07T10:31:41.048Z,18.94
2023-02-07T10:34:07.445Z,19.30
2023-02-07T10:36:33.922Z,20.25
2023-02-07T10:39:08.966Z,19.62
2023-02-07T10:41:36.054Z,19.47
2023-02-07T10:44:02.549Z,19.57
2023-02-07T10:46:29.356Z,19.61
2023-02-07T10:48:55.784Z,20.47
2023-02-07T10:51:22.233Z,21.48
2023-02-07T10:53:55.162Z,21.07
2023-02-07T10:56:21.971Z,21.83
2023-02-07T10:58:48.475Z,22.03
2023-02-07T11:01:14.886Z,21.06
2023-02-07T11:03:41.291Z,21.75
2023-02-07T11:06:07.763Z,21.41
2023-02-07T11:08:34.133Z,21.00
2023-02-07T11:11:00.537Z,21.10
2023-02-07T11:13:29.063Z,21.12
2023-02-07T11:15:55.663Z,21.75
2023-02-07T11:18:26.016Z,21.85
2023-02-07T11:20:52.476Z,22.35
2023-02-07T11:23:18.848Z,21.77
2023-02-07T11:25:45.229Z,22.19
2023-02-07T11:31:01.888Z,22.30
2023-02-07T11:33:28.339Z,22.17
2023-02-07T11:35:54.690Z,22.26
2023-02-07T11:38:21.040Z,22.52
2023-02-07T11:40:47.431Z,21.95
2023-02-07T11:43:13.796Z,23.35
2023-02-07T11:45:40.469Z,22.66
2023-02-07T11:50:47.393Z,22.60
2023-02-07T11:53:13.862Z,23.18
2023-02-07T11:55:40.582Z,23.14
2023-02-07T11:58:07.402Z,23.42
2023-02-07T12:00:33.798Z,22.21
2023-02-07T12:03:18.688Z,21.88
2023-02-07T12:05:46.116Z,22.73
2023-02-07T12:08:21.548Z,22.67
2023-02-07T12:10:48.014Z,23.03
2023-02-07T12:13:14.490Z,22.70
2023-02-07T12:15:41.221Z,22.88
2023-02-07T12:18:07.761Z,22.75
2023-02-07T12:20:34.197Z,22.52
2023-02-07T12:23:19.026Z,21.91
2023-02-07T12:25:46.993Z,23.22
2023-02-07T12:28:13.440Z,22.96
2023-02-07T12:30:39.937Z,23.15
2023-02-07T12:33:06.396Z,22.46
2023-02-07T12:35:32.847Z,22.78
2023-02-07T12:37:59.261Z,23.37
2023-02-07T12:40:25.709Z,22.87
2023-02-07T12:42:52.132Z,23.24
2023-02-07T12:45:18.623Z,23.55
2023-02-07T12:47:45.131Z,23.82
2023-02-07T12:50:11.862Z,23.26
2023-02-07T12:52:38.291Z,23.72
2023-02-07T12:55:04.782Z,23.68
2023-02-07T12:57:31.153Z,23.18
2023-02-07T12:59:57.544Z,23.43
2023-02-07T13:02:24.121Z,22.42
2023-02-07T13:04:51.668Z,22.67
2023-02-07T13:07:18.159Z,22.80
2023-02-07T13:09:44.539Z,22.67
2023-02-07T13:12:10.942Z,22.59
2023-02-07T13:14:37.267Z,22.58
2023-02-07T13:17:03.629Z,23.18
2023-02-07T13:19:30.019Z,23.22
2023-02-07T13:21:56.403Z,23.56
2023-02-07T13:24:22.830Z,22.80
2023-02-07T13:29:41.853Z,23.27
2023-02-07T13:32:08.219Z,22.51
2023-02-07T13:34:34.663Z,22.42
2023-02-07T13:37:11.357Z,23.09
2023-02-07T13:39:41.726Z,22.69
2023-02-07T13:42:08.261Z,23.09
2023-02-07T13:44:34.647Z,22.28
2023-02-07T13:49:42.419Z,22.26
2023-02-07T13:52:10.885Z,21.96
2023-02-07T13:54:39.808Z,22.73
2023-02-07T13:57:06.192Z,22.79
2023-02-07T14:02:13.892Z,22.15
2023-02-07T14:04:40.275Z,21.88
2023-02-07T14:07:06.724Z,21.35
2023-02-07T14:09:33.120Z,21.34
2023-02-07T14:11:59.592Z,20.56
2023-02-07T14:14:26.056Z,21.16
2023-02-07T14:16:52.521Z,21.98
2023-02-07T14:19:18.940Z,20.68
2023-02-07T14:21:45.353Z,19.99
2023-02-07T14:24:11.764Z,21.70
2023-02-07T14:26:38.215Z,20.62
2023-02-07T14:29:04.728Z,20.59
2023-02-07T14:31:31.337Z,20.11
2023-02-07T14:33:57.901Z,20.61
2023-02-07T14:36:24.389Z,20.03
2023-02-07T14:38:50.783Z,20.84
2023-02-07T14:41:17.246Z,20.99
2023-02-07T14:43:43.653Z,19.17
2023-02-07T14:46:10.094Z,19.74
2023-02-07T14:48:36.535Z,20.50
2023-02-07T14:51:03.373Z,20.05
2023-02-07T14:53:29.708Z,19.15
2023-02-07T14:55:56.228Z,18.97
2023-02-07T14:58:22.599Z,19.41
2023-02-07T15:00:52.978Z,19.59
2023-02-07T15:03:19.507Z,19.73
2023-02-07T15:05:45.906Z,20.47
2023-02-07T15:08:13.088Z,19.99
2023-02-07T15:10:42.327Z,20.05
2023-02-07T15:13:12.668Z,20.09
2023-02-07T15:15:39.315Z,20.73
2023-02-07T15:18:05.846Z,20.96
2023-02-07T15:20:32.353Z,19.46
2023-02-07T15:22:59.880Z,19.74
2023-02-07T15:25:26.389Z,20.73
2023-02-07T15:27:52.850Z,20.27
2023-02-07T15:30:19.383Z,20.29
2023-02-07T15:32:45.826Z,20.88
2023-02-07T15:35:12.285Z,21.09
2023-02-07T15:37:38.703Z,21.98
2023-02-07T15:40:05.105Z,21.58
2023-02-07T15:42:31.553Z,21.67
2023-02-07T15:44:58.035Z,21.66
2023-02-07T15:47:24.446Z,21.71
2023-02-07T15:49:50.949Z,21.59
2023-02-07T15:52:20.112Z,21.99
2023-02-07T15:54:46.533Z,20.75
2023-02-07T15:57:13.018Z,20.44
2023-02-07T15:59:39.495Z,20.28
2023-02-07T16:02:05.973Z,20.58
2023-02-07T16:04:32.578Z,19.85
2023-02-07T16:06:59.155Z,21.26
2023-02-07T16:09:25.632Z,20.87
2023-02-07T16:11:52.036Z,20.90
2023-02-07T16:14:18.443Z,19.88
2023-02-07T16:16:44.919Z,20.77
2023-02-07T16:19:11.354Z,20.27
2023-02-07T16:21:40.214Z,22.59
2023-02-07T16:24:07.823Z,49.47
2023-02-07T16:26:34.297Z,42.82
2023-02-07T16:29:00.935Z,28.30
2023-02-07T16:31:35.354Z,24.30
2023-02-07T16:34:01.874Z,21.98
2023-02-07T16:36:28.378Z,28.33
2023-02-07T16:38:54.857Z,23.28
2023-02-07T16:41:21.284Z,21.28
2023-02-07T16:43:47.721Z,19.06
2023-02-07T16:46:14.147Z,18.62
2023-02-07T16:48:40.650Z,18.40
2023-02-07T16:51:07.479Z,18.49
2023-02-07T16:53:33.956Z,18.01
2023-02-07T16:56:00.473Z,18.73
2023-02-07T16:58:26.934Z,18.30
2023-02-07T17:00:53.345Z,17.75
2023-02-07T17:03:19.692Z,17.89
2023-02-07T17:05:46.206Z,17.93
2023-02-07T17:08:12.648Z,17.61
2023-02-07T17:10:39.235Z,16.62
2023-02-07T17:13:05.764Z,18.00
2023-02-07T17:15:32.187Z,17.62
2023-02-07T17:17:58.647Z,17.64
2023-02-07T17:20:25.055Z,17.68
2023-02-07T17:22:51.409Z,16.51
2023-02-07T17:25:18.006Z,16.51
2023-02-07T17:27:44.531Z,18.53
2023-02-07T17:30:11.163Z,20.26
2023-02-07T17:32:44.110Z,18.22
2023-02-07T17:35:10.602Z,15.89
2023-02-07T17:37:37.279Z,15.72
2023-02-07T17:40:05.438Z,14.89
2023-02-07T17:42:31.774Z,13.89
2023-02-07T17:44:58.284Z,14.62
2023-02-07T17:47:24.718Z,14.44
2023-02-07T17:52:31.538Z,15.33
2023-02-07T17:54:57.943Z,14.96
2023-02-07T17:57:24.450Z,15.35
2023-02-07T17:59:50.804Z,15.52
2023-02-07T18:02:17.297Z,14.60
2023-02-07T18:04:44.864Z,14.84
2023-02-07T18:07:11.287Z,14.82
2023-02-07T18:09:37.749Z,13.62
2023-02-07T18:12:04.164Z,12.44
2023-02-07T18:14:30.648Z,12.23
2023-02-07T18:16:57.123Z,12.53
2023-02-07T18:19:23.512Z,12.69
2023-02-07T18:21:50.002Z,13.15
2023-02-07T18:24:16.399Z,11.47
2023-02-07T18:26:42.830Z,10.77
2023-02-07T18:29:09.265Z,12.55
2023-02-07T18:31:35.760Z,12.33
2023-02-07T18:34:02.126Z,12.04
2023-02-07T18:36:28.671Z,12.30
2023-02-07T18:38:55.118Z,12.05
2023-02-07T18:41:22.790Z,14.08
2023-02-07T18:43:49.303Z,12.50
2023-02-07T18:46:15.745Z,14.23
2023-02-07T18:48:42.546Z,13.87
2023-02-07T18:51:09.029Z,12.63
2023-02-07T18:53:35.466Z,11.15
2023-02-07T18:56:01.902Z,11.23
2023-02-07T18:58:28.346Z,10.44
2023-02-07T19:00:54.787Z,10.00
2023-02-07T19:03:21.211Z,10.21
2023-02-07T19:05:47.711Z,10.24
2023-02-07T19:08:14.232Z,9.16
2023-02-07T19:10:41.042Z,8.93
2023-02-07T19:13:07.523Z,9.49
2023-02-07T19:15:33.920Z,15.49
2023-02-07T19:18:01.297Z,14.28
2023-02-07T19:20:29.574Z,11.78
2023-02-07T19:22:56.039Z,11.66
2023-02-07T19:25:22.390Z,12.20
2023-02-07T19:27:48.896Z,14.59
2023-02-07T19:30:15.638Z,16.09
2023-02-07T19:32:42.278Z,17.89
2023-02-07T19:35:08.963Z,15.29
2023-02-07T19:37:37.473Z,16.11
2023-02-07T19:40:10.382Z,13.32
2023-02-07T19:42:38.776Z,12.38
2023-02-07T19:45:05.190Z,11.72
2023-02-07T19:47:35.182Z,11.94
2023-02-07T19:50:01.633Z,12.26
2023-02-07T19:52:29.859Z,11.28
2023-02-07T19:54:56.792Z,10.85
2023-02-07T19:57:23.185Z,17.06
2023-02-07T19:59:49.563Z,21.00
2023-02-07T20:02:15.909Z,18.56
2023-02-07T20:04:42.406Z,15.90
2023-02-07T20:07:08.788Z,18.04
2023-02-07T20:09:35.176Z,19.19
2023-02-07T20:12:01.561Z,15.53
2023-02-07T20:14:27.938Z,14.21
2023-02-07T20:16:54.524Z,11.75
2023-02-07T20:19:21.382Z,10.26
2023-02-07T20:21:47.730Z,10.23
2023-02-07T20:24:14.281Z,9.34
2023-02-07T20:26:40.639Z,9.77
2023-02-07T20:29:08.070Z,10.35
2023-02-07T20:31:53.935Z,11.58
2023-02-07T20:34:20.278Z,10.27
2023-02-07T20:36:55.789Z,11.86
2023-02-07T20:39:22.161Z,12.35
2023-02-07T20:41:48.570Z,11.25
2023-02-07T20:44:14.984Z,10.97
2023-02-07T20:46:41.328Z,11.03
2023-02-07T20:49:07.736Z,10.46
2023-02-07T20:51:34.153Z,9.90
2023-02-07T20:54:03.053Z,10.17
2023-02-07T20:56:32.742Z,10.49
2023-02-07T20:59:02.438Z,10.18
2023-02-07T21:01:29.199Z,10.89
2023-02-07T21:03:55.651Z,11.00
2023-02-07T21:06:22.081Z,11.30
2023-02-07T21:08:48.903Z,11.51
2023-02-07T21:11:26.706Z,11.54
2023-02-07T21:13:54.214Z,11.19
2023-02-07T21:16:20.782Z,12.17
2023-02-07T21:18:47.924Z,12.09
2023-02-07T21:21:14.617Z,12.84
2023-02-07T21:23:40.977Z,13.08
2023-02-07T21:26:07.343Z,13.05
2023-02-07T21:28:33.712Z,13.05
2023-02-07T21:33:51.177Z,11.93
2023-02-07T21:36:17.605Z,11.70
2023-02-07T21:41:36.821Z,12.41
2023-02-07T21:44:03.329Z,13.24
2023-02-07T21:46:29.754Z,12.01
2023-02-07T21:48:56.115Z,11.32
2023-02-07T21:51:24.030Z,10.91
2023-02-07T21:53:51.753Z,11.41
2023-02-07T21:56:18.244Z,11.30
2023-02-07T21:58:44.738Z,10.06
2023-02-07T22:01:11.381Z,10.65
2023-02-07T22:03:37.932Z,10.90
2023-02-07T22:06:04.423Z,11.99
2023-02-07T22:08:31.850Z,11.92
2023-02-07T22:10:58.292Z,12.33
2023-02-07T22:13:24.737Z,12.15
2023-02-07T22:15:51.141Z,11.85
2023-02-07T22:18:17.633Z,12.38
2023-02-07T22:20:44.044Z,14.29
2023-02-07T22:23:10.482Z,13.86
2023-02-07T22:25:39.955Z,12.99
2023-02-07T22:28:06.471Z,12.14
2023-02-07T22:30:32.975Z,11.51
2023-02-07T22:32:59.586Z,11.84
2023-02-07T22:35:26.030Z,12.00
2023-02-07T22:37:52.478Z,11.66
2023-02-07T22:40:18.982Z,11.16
2023-02-07T22:42:45.451Z,10.68
2023-02-07T22:45:16.743Z,12.69
2023-02-07T22:47:44.197Z,15.46
2023-02-07T22:50:10.662Z,14.87
2023-02-07T22:52:37.126Z,14.07
2023-02-07T22:55:03.596Z,12.86
2023-02-07T22:57:30.067Z,12.52
2023-02-07T22:59:56.476Z,12.51
2023-02-07T23:02:22.942Z,13.05
2023-02-07T23:04:49.385Z,12.75
2023-02-07T23:07:15.840Z,12.41
2023-02-07T23:09:42.248Z,12.10
2023-02-07T23:12:11.432Z,14.59
2023-02-07T23:14:37.929Z,14.55
2023-02-07T23:17:04.387Z,15.61
2023-02-07T23:19:30.937Z,16.01
2023-02-07T23:21:57.455Z,16.85
2023-02-07T23:24:23.968Z,16.30
2023-02-07T23:26:50.412Z,16.85
2023-02-07T23:29:16.890Z,17.33
2023-02-07T23:31:43.338Z,17.34
2023-02-07T23:34:09.757Z,17.85
2023-02-07T23:36:36.203Z,18.10
2023-02-07T23:39:02.616Z,17.91
2023-02-07T23:41:29.031Z,17.92
2023-02-07T23:43:55.470Z,17.89
2023-02-07T23:46:21.983Z,18.65
2023-02-07T23:48:48.544Z,18.46
2023-02-07T23:51:15.028Z,18.23
2023-02-07T23:53:41.489Z,17.56
2023-02-07T23:56:07.894Z,17.33
2023-02-07T23:58:34.313Z,16.53
